sensor_id;sensor_type;location;lat;lon;timestamp;P1;durP1;ratioP1;P2;durP2;ratioP2
59193;SDS011;44967;48.598;15.650;2023-07-09T00:02:19;4.55;;;3.88;;
59193;SDS011;44967;48.598;15.650;2023-07-09T00:04:47;4.53;;;4.05;;
59193;SDS011;44967;48.598;15.650;2023-07-09T00:07:27;4.38;;;3.30;;
59193;SDS011;44967;48.598;15.650;2023-07-09T00:09:55;3.95;;;3.53;;
59193;SDS011;44967;48.598;15.650;2023-07-09T00:12:21;3.53;;;3.22;;
59193;SDS011;44967;48.598;15.650;2023-07-09T00:14:47;4.45;;;3.50;;
59193;SDS011;44967;48.598;15.650;2023-07-09T00:17:32;4.03;;;3.42;;
59193;SDS011;44967;48.598;15.650;2023-07-09T00:20:03;4.00;;;3.60;;
59193;SDS011;44967;48.598;15.650;2023-07-09T00:22:36;7.22;;;3.47;;
59193;SDS011;44967;48.598;15.650;2023-07-09T00:25:05;4.38;;;3.30;;
59193;SDS011;44967;48.598;15.650;2023-07-09T00:27:31;4.32;;;3.65;;
59193;SDS011;44967;48.598;15.650;2023-07-09T00:29:57;4.57;;;3.58;;
59193;SDS011;44967;48.598;15.650;2023-07-09T00:32:22;4.45;;;3.80;;
59193;SDS011;44967;48.598;15.650;2023-07-09T00:34:50;4.35;;;3.67;;
59193;SDS011;44967;48.598;15.650;2023-07-09T00:37:19;4.43;;;3.55;;
59193;SDS011;44967;48.598;15.650;2023-07-09T00:39:47;6.43;;;4.03;;
59193;SDS011;44967;48.598;15.650;2023-07-09T00:42:18;6.57;;;4.05;;
59193;SDS011;44967;48.598;15.650;2023-07-09T00:44:46;5.95;;;3.90;;
59193;SDS011;44967;48.598;15.650;2023-07-09T00:47:27;6.85;;;3.97;;
59193;SDS011;44967;48.598;15.650;2023-07-09T00:50:06;3.65;;;3.25;;
59193;SDS011;44967;48.598;15.650;2023-07-09T00:52:38;5.78;;;3.58;;
59193;SDS011;44967;48.598;15.650;2023-07-09T00:55:28;6.72;;;4.18;;
59193;SDS011;44967;48.598;15.650;2023-07-09T00:57:59;4.15;;;3.75;;
59193;SDS011;44967;48.598;15.650;2023-07-09T01:00:30;6.75;;;3.78;;
59193;SDS011;44967;48.598;15.650;2023-07-09T01:03:08;3.58;;;3.28;;
59193;SDS011;44967;48.598;15.650;2023-07-09T01:05:39;5.00;;;4.18;;
59193;SDS011;44967;48.598;15.650;2023-07-09T01:08:06;5.03;;;3.60;;
59193;SDS011;44967;48.598;15.650;2023-07-09T01:10:34;4.28;;;3.80;;
59193;SDS011;44967;48.598;15.650;2023-07-09T01:13:01;4.80;;;3.92;;
59193;SDS011;44967;48.598;15.650;2023-07-09T01:15:27;4.65;;;4.05;;
59193;SDS011;44967;48.598;15.650;2023-07-09T01:17:53;6.55;;;3.65;;
59193;SDS011;44967;48.598;15.650;2023-07-09T01:20:19;5.00;;;3.67;;
59193;SDS011;44967;48.598;15.650;2023-07-09T01:22:47;6.53;;;3.45;;
59193;SDS011;44967;48.598;15.650;2023-07-09T01:25:15;4.15;;;3.63;;
59193;SDS011;44967;48.598;15.650;2023-07-09T01:27:43;4.18;;;3.45;;
59193;SDS011;44967;48.598;15.650;2023-07-09T01:30:13;3.72;;;3.38;;
59193;SDS011;44967;48.598;15.650;2023-07-09T01:33:00;4.50;;;3.70;;
59193;SDS011;44967;48.598;15.650;2023-07-09T01:35:26;4.97;;;3.40;;
59193;SDS011;44967;48.598;15.650;2023-07-09T01:37:55;4.03;;;3.63;;
59193;SDS011;44967;48.598;15.650;2023-07-09T01:40:22;4.55;;;3.75;;
59193;SDS011;44967;48.598;15.650;2023-07-09T01:42:50;5.43;;;3.85;;
59193;SDS011;44967;48.598;15.650;2023-07-09T01:45:17;5.57;;;3.47;;
59193;SDS011;44967;48.598;15.650;2023-07-09T01:47:45;4.90;;;3.70;;
59193;SDS011;44967;48.598;15.650;2023-07-09T01:50:11;3.90;;;3.50;;
59193;SDS011;44967;48.598;15.650;2023-07-09T01:52:37;5.05;;;3.88;;
59193;SDS011;44967;48.598;15.650;2023-07-09T01:55:08;5.15;;;4.13;;
59193;SDS011;44967;48.598;15.650;2023-07-09T01:57:42;3.97;;;3.47;;
59193;SDS011;44967;48.598;15.650;2023-07-09T02:00:10;4.55;;;3.83;;
59193;SDS011;44967;48.598;15.650;2023-07-09T02:02:39;4.82;;;3.97;;
59193;SDS011;44967;48.598;15.650;2023-07-09T02:05:09;5.15;;;4.18;;
59193;SDS011;44967;48.598;15.650;2023-07-09T02:07:35;4.28;;;3.63;;
59193;SDS011;44967;48.598;15.650;2023-07-09T02:10:01;3.70;;;3.40;;
59193;SDS011;44967;48.598;15.650;2023-07-09T02:12:27;6.05;;;3.70;;
59193;SDS011;44967;48.598;15.650;2023-07-09T02:14:52;4.45;;;4.05;;
59193;SDS011;44967;48.598;15.650;2023-07-09T02:17:18;5.30;;;4.10;;
59193;SDS011;44967;48.598;15.650;2023-07-09T02:19:44;6.60;;;4.03;;
59193;SDS011;44967;48.598;15.650;2023-07-09T02:22:10;4.90;;;4.15;;
59193;SDS011;44967;48.598;15.650;2023-07-09T02:24:36;4.78;;;4.15;;
59193;SDS011;44967;48.598;15.650;2023-07-09T02:27:03;7.80;;;4.32;;
59193;SDS011;44967;48.598;15.650;2023-07-09T02:29:31;4.57;;;4.07;;
59193;SDS011;44967;48.598;15.650;2023-07-09T02:31:58;4.68;;;3.97;;
59193;SDS011;44967;48.598;15.650;2023-07-09T02:34:25;6.30;;;4.00;;
59193;SDS011;44967;48.598;15.650;2023-07-09T02:36:52;5.13;;;4.07;;
59193;SDS011;44967;48.598;15.650;2023-07-09T02:39:19;4.30;;;3.88;;
59193;SDS011;44967;48.598;15.650;2023-07-09T02:41:45;4.82;;;4.28;;
59193;SDS011;44967;48.598;15.650;2023-07-09T02:44:11;5.20;;;4.22;;
59193;SDS011;44967;48.598;15.650;2023-07-09T02:46:36;4.13;;;3.72;;
59193;SDS011;44967;48.598;15.650;2023-07-09T02:49:03;5.60;;;3.95;;
59193;SDS011;44967;48.598;15.650;2023-07-09T02:51:29;5.28;;;4.38;;
59193;SDS011;44967;48.598;15.650;2023-07-09T02:53:56;7.07;;;4.63;;
59193;SDS011;44967;48.598;15.650;2023-07-09T02:56:23;4.22;;;3.70;;
59193;SDS011;44967;48.598;15.650;2023-07-09T02:58:50;5.22;;;3.78;;
59193;SDS011;44967;48.598;15.650;2023-07-09T03:01:17;4.75;;;4.28;;
59193;SDS011;44967;48.598;15.650;2023-07-09T03:03:43;5.53;;;4.53;;
59193;SDS011;44967;48.598;15.650;2023-07-09T03:06:09;5.00;;;4.07;;
59193;SDS011;44967;48.598;15.650;2023-07-09T03:08:35;5.65;;;4.47;;
59193;SDS011;44967;48.598;15.650;2023-07-09T03:11:09;5.53;;;4.32;;
59193;SDS011;44967;48.598;15.650;2023-07-09T03:13:38;5.47;;;4.22;;
59193;SDS011;44967;48.598;15.650;2023-07-09T03:16:04;4.57;;;4.10;;
59193;SDS011;44967;48.598;15.650;2023-07-09T03:18:30;5.85;;;4.47;;
59193;SDS011;44967;48.598;15.650;2023-07-09T03:20:56;5.13;;;3.88;;
59193;SDS011;44967;48.598;15.650;2023-07-09T03:23:22;7.20;;;4.95;;
59193;SDS011;44967;48.598;15.650;2023-07-09T03:25:48;6.55;;;4.47;;
59193;SDS011;44967;48.598;15.650;2023-07-09T03:28:13;5.45;;;4.45;;
59193;SDS011;44967;48.598;15.650;2023-07-09T03:30:43;6.55;;;4.38;;
59193;SDS011;44967;48.598;15.650;2023-07-09T03:33:10;5.65;;;4.28;;
59193;SDS011;44967;48.598;15.650;2023-07-09T03:35:37;5.50;;;4.18;;
59193;SDS011;44967;48.598;15.650;2023-07-09T03:38:04;5.88;;;4.03;;
59193;SDS011;44967;48.598;15.650;2023-07-09T03:40:30;4.30;;;3.83;;
59193;SDS011;44967;48.598;15.650;2023-07-09T03:42:56;5.05;;;3.80;;
59193;SDS011;44967;48.598;15.650;2023-07-09T03:45:21;6.35;;;4.70;;
59193;SDS011;44967;48.598;15.650;2023-07-09T03:47:47;4.38;;;3.95;;
59193;SDS011;44967;48.598;15.650;2023-07-09T03:50:13;4.72;;;4.22;;
59193;SDS011;44967;48.598;15.650;2023-07-09T03:52:39;5.07;;;4.32;;
59193;SDS011;44967;48.598;15.650;2023-07-09T03:55:05;6.75;;;4.72;;
59193;SDS011;44967;48.598;15.650;2023-07-09T03:57:32;5.95;;;4.28;;
59193;SDS011;44967;48.598;15.650;2023-07-09T03:59:59;5.90;;;4.30;;
59193;SDS011;44967;48.598;15.650;2023-07-09T04:02:25;4.45;;;3.90;;
59193;SDS011;44967;48.598;15.650;2023-07-09T04:04:53;5.47;;;4.32;;
59193;SDS011;44967;48.598;15.650;2023-07-09T04:07:19;5.10;;;4.60;;
59193;SDS011;44967;48.598;15.650;2023-07-09T04:09:45;6.22;;;4.82;;
59193;SDS011;44967;48.598;15.650;2023-07-09T04:12:10;5.20;;;4.13;;
59193;SDS011;44967;48.598;15.650;2023-07-09T04:14:37;6.85;;;4.90;;
59193;SDS011;44967;48.598;15.650;2023-07-09T04:17:03;5.05;;;4.50;;
59193;SDS011;44967;48.598;15.650;2023-07-09T04:19:29;5.35;;;4.30;;
59193;SDS011;44967;48.598;15.650;2023-07-09T04:21:54;4.10;;;3.70;;
59193;SDS011;44967;48.598;15.650;2023-07-09T04:24:20;6.20;;;4.85;;
59193;SDS011;44967;48.598;15.650;2023-07-09T04:26:46;5.25;;;4.53;;
59193;SDS011;44967;48.598;15.650;2023-07-09T04:29:12;6.20;;;4.75;;
59193;SDS011;44967;48.598;15.650;2023-07-09T04:31:39;5.25;;;4.60;;
59193;SDS011;44967;48.598;15.650;2023-07-09T04:34:06;4.63;;;4.15;;
59193;SDS011;44967;48.598;15.650;2023-07-09T04:36:32;5.45;;;4.40;;
59193;SDS011;44967;48.598;15.650;2023-07-09T04:39:01;4.32;;;3.90;;
59193;SDS011;44967;48.598;15.650;2023-07-09T04:41:27;5.43;;;4.72;;
59193;SDS011;44967;48.598;15.650;2023-07-09T04:43:53;5.82;;;4.35;;
59193;SDS011;44967;48.598;15.650;2023-07-09T04:46:18;5.97;;;4.55;;
59193;SDS011;44967;48.598;15.650;2023-07-09T04:48:44;4.80;;;4.30;;
59193;SDS011;44967;48.598;15.650;2023-07-09T04:51:10;5.18;;;4.22;;
59193;SDS011;44967;48.598;15.650;2023-07-09T04:53:35;4.95;;;4.40;;
59193;SDS011;44967;48.598;15.650;2023-07-09T04:56:02;4.95;;;4.35;;
59193;SDS011;44967;48.598;15.650;2023-07-09T04:58:28;5.00;;;4.47;;
59193;SDS011;44967;48.598;15.650;2023-07-09T05:00:58;5.65;;;4.20;;
59193;SDS011;44967;48.598;15.650;2023-07-09T05:03:24;4.85;;;4.35;;
59193;SDS011;44967;48.598;15.650;2023-07-09T05:05:51;6.20;;;4.20;;
59193;SDS011;44967;48.598;15.650;2023-07-09T05:08:17;5.47;;;4.95;;
59193;SDS011;44967;48.598;15.650;2023-07-09T05:10:48;7.68;;;4.93;;
59193;SDS011;44967;48.598;15.650;2023-07-09T05:13:16;5.50;;;4.90;;
59193;SDS011;44967;48.598;15.650;2023-07-09T05:15:44;5.32;;;4.82;;
59193;SDS011;44967;48.598;15.650;2023-07-09T05:18:11;6.30;;;5.03;;
59193;SDS011;44967;48.598;15.650;2023-07-09T05:20:37;4.88;;;4.03;;
59193;SDS011;44967;48.598;15.650;2023-07-09T05:23:03;6.88;;;4.72;;
59193;SDS011;44967;48.598;15.650;2023-07-09T05:25:29;8.40;;;5.18;;
59193;SDS011;44967;48.598;15.650;2023-07-09T05:27:54;7.38;;;4.63;;
59193;SDS011;44967;48.598;15.650;2023-07-09T05:30:20;5.55;;;4.75;;
59193;SDS011;44967;48.598;15.650;2023-07-09T05:32:46;5.68;;;4.40;;
59193;SDS011;44967;48.598;15.650;2023-07-09T05:35:12;4.97;;;4.47;;
59193;SDS011;44967;48.598;15.650;2023-07-09T05:37:38;5.15;;;4.43;;
59193;SDS011;44967;48.598;15.650;2023-07-09T05:40:05;5.78;;;4.57;;
59193;SDS011;44967;48.598;15.650;2023-07-09T05:42:32;6.63;;;4.68;;
59193;SDS011;44967;48.598;15.650;2023-07-09T05:44:58;5.50;;;4.75;;
59193;SDS011;44967;48.598;15.650;2023-07-09T05:47:24;6.80;;;5.03;;
59193;SDS011;44967;48.598;15.650;2023-07-09T05:49:52;6.88;;;5.32;;
59193;SDS011;44967;48.598;15.650;2023-07-09T05:52:18;6.55;;;5.18;;
59193;SDS011;44967;48.598;15.650;2023-07-09T05:54:50;7.47;;;5.90;;
59193;SDS011;44967;48.598;15.650;2023-07-09T05:57:16;6.22;;;5.30;;
59193;SDS011;44967;48.598;15.650;2023-07-09T05:59:42;7.10;;;5.18;;
59193;SDS011;44967;48.598;15.650;2023-07-09T06:02:12;6.78;;;5.55;;
59193;SDS011;44967;48.598;15.650;2023-07-09T06:04:43;7.85;;;4.97;;
59193;SDS011;44967;48.598;15.650;2023-07-09T06:07:09;6.22;;;5.38;;
59193;SDS011;44967;48.598;15.650;2023-07-09T06:09:35;7.15;;;4.53;;
59193;SDS011;44967;48.598;15.650;2023-07-09T06:12:02;5.88;;;5.20;;
59193;SDS011;44967;48.598;15.650;2023-07-09T06:14:28;6.90;;;4.97;;
59193;SDS011;44967;48.598;15.650;2023-07-09T06:16:54;6.68;;;5.30;;
59193;SDS011;44967;48.598;15.650;2023-07-09T06:19:20;5.88;;;5.13;;
59193;SDS011;44967;48.598;15.650;2023-07-09T06:21:45;7.55;;;5.13;;
59193;SDS011;44967;48.598;15.650;2023-07-09T06:24:11;5.93;;;4.45;;
59193;SDS011;44967;48.598;15.650;2023-07-09T06:26:37;6.13;;;5.50;;
59193;SDS011;44967;48.598;15.650;2023-07-09T06:29:03;5.68;;;5.18;;
59193;SDS011;44967;48.598;15.650;2023-07-09T06:31:29;5.80;;;4.88;;
59193;SDS011;44967;48.598;15.650;2023-07-09T06:33:55;6.32;;;5.18;;
59193;SDS011;44967;48.598;15.650;2023-07-09T06:36:20;5.55;;;5.05;;
59193;SDS011;44967;48.598;15.650;2023-07-09T06:38:46;4.68;;;4.15;;
59193;SDS011;44967;48.598;15.650;2023-07-09T06:41:13;7.15;;;4.75;;
59193;SDS011;44967;48.598;15.650;2023-07-09T06:43:40;6.32;;;5.22;;
59193;SDS011;44967;48.598;15.650;2023-07-09T06:46:07;7.25;;;5.00;;
59193;SDS011;44967;48.598;15.650;2023-07-09T06:48:35;5.72;;;5.05;;
59193;SDS011;44967;48.598;15.650;2023-07-09T06:51:01;5.93;;;4.88;;
59193;SDS011;44967;48.598;15.650;2023-07-09T06:53:27;6.65;;;5.32;;
59193;SDS011;44967;48.598;15.650;2023-07-09T06:55:54;5.03;;;4.57;;
59193;SDS011;44967;48.598;15.650;2023-07-09T06:58:25;4.95;;;4.43;;
59193;SDS011;44967;48.598;15.650;2023-07-09T07:00:53;4.90;;;4.38;;
59193;SDS011;44967;48.598;15.650;2023-07-09T07:03:20;4.60;;;4.13;;
59193;SDS011;44967;48.598;15.650;2023-07-09T07:05:47;6.43;;;3.90;;
59193;SDS011;44967;48.598;15.650;2023-07-09T07:08:18;6.55;;;3.85;;
59193;SDS011;44967;48.598;15.650;2023-07-09T07:10:49;4.93;;;3.90;;
59193;SDS011;44967;48.598;15.650;2023-07-09T07:13:15;6.32;;;4.18;;
59193;SDS011;44967;48.598;15.650;2023-07-09T07:15:47;3.72;;;3.42;;
59193;SDS011;44967;48.598;15.650;2023-07-09T07:18:17;5.03;;;3.35;;
59193;SDS011;44967;48.598;15.650;2023-07-09T07:20:42;10.13;;;4.13;;
59193;SDS011;44967;48.598;15.650;2023-07-09T07:23:08;4.35;;;3.35;;
59193;SDS011;44967;48.598;15.650;2023-07-09T07:25:35;4.25;;;3.70;;
59193;SDS011;44967;48.598;15.650;2023-07-09T07:28:01;5.78;;;3.67;;
59193;SDS011;44967;48.598;15.650;2023-07-09T07:30:27;4.45;;;3.92;;
59193;SDS011;44967;48.598;15.650;2023-07-09T07:32:52;5.18;;;3.17;;
59193;SDS011;44967;48.598;15.650;2023-07-09T07:35:18;3.47;;;3.17;;
59193;SDS011;44967;48.598;15.650;2023-07-09T07:37:44;4.18;;;3.15;;
59193;SDS011;44967;48.598;15.650;2023-07-09T07:40:10;7.22;;;2.92;;
59193;SDS011;44967;48.598;15.650;2023-07-09T07:42:37;3.40;;;2.47;;
59193;SDS011;44967;48.598;15.650;2023-07-09T07:45:03;4.95;;;3.28;;
59193;SDS011;44967;48.598;15.650;2023-07-09T07:47:29;4.88;;;3.25;;
59193;SDS011;44967;48.598;15.650;2023-07-09T07:49:56;3.85;;;2.90;;
59193;SDS011;44967;48.598;15.650;2023-07-09T07:52:22;4.13;;;3.72;;
59193;SDS011;44967;48.598;15.650;2023-07-09T07:54:49;3.20;;;2.90;;
59193;SDS011;44967;48.598;15.650;2023-07-09T07:57:18;3.47;;;3.17;;
59193;SDS011;44967;48.598;15.650;2023-07-09T07:59:44;4.80;;;3.40;;
59193;SDS011;44967;48.598;15.650;2023-07-09T08:02:12;4.50;;;3.30;;
59193;SDS011;44967;48.598;15.650;2023-07-09T08:04:39;3.10;;;2.80;;
59193;SDS011;44967;48.598;15.650;2023-07-09T08:07:09;3.42;;;3.13;;
59193;SDS011;44967;48.598;15.650;2023-07-09T08:09:36;4.53;;;3.28;;
59193;SDS011;44967;48.598;15.650;2023-07-09T08:12:03;3.47;;;2.85;;
59193;SDS011;44967;48.598;15.650;2023-07-09T08:14:37;3.60;;;3.30;;
59193;SDS011;44967;48.598;15.650;2023-07-09T08:17:03;4.82;;;3.00;;
59193;SDS011;44967;48.598;15.650;2023-07-09T08:19:30;4.25;;;2.65;;
59193;SDS011;44967;48.598;15.650;2023-07-09T08:21:56;4.53;;;2.92;;
59193;SDS011;44967;48.598;15.650;2023-07-09T08:24:22;3.10;;;2.80;;
59193;SDS011;44967;48.598;15.650;2023-07-09T08:26:48;3.25;;;2.90;;
59193;SDS011;44967;48.598;15.650;2023-07-09T08:29:14;4.20;;;2.53;;
59193;SDS011;44967;48.598;15.650;2023-07-09T08:31:42;3.20;;;2.55;;
59193;SDS011;44967;48.598;15.650;2023-07-09T08:34:08;3.35;;;2.50;;
59193;SDS011;44967;48.598;15.650;2023-07-09T08:36:34;3.92;;;2.45;;
59193;SDS011;44967;48.598;15.650;2023-07-09T08:39:03;3.30;;;2.55;;
59193;SDS011;44967;48.598;15.650;2023-07-09T08:49:47;6.25;;;2.75;;
59193;SDS011;44967;48.598;15.650;2023-07-09T08:55:05;4.07;;;2.65;;
59193;SDS011;44967;48.598;15.650;2023-07-09T08:57:37;3.60;;;2.92;;
59193;SDS011;44967;48.598;15.650;2023-07-09T09:00:07;3.35;;;2.72;;
59193;SDS011;44967;48.598;15.650;2023-07-09T09:02:42;2.90;;;2.60;;
59193;SDS011;44967;48.598;15.650;2023-07-09T09:05:17;2.67;;;2.47;;
59193;SDS011;44967;48.598;15.650;2023-07-09T09:07:44;6.53;;;3.10;;
59193;SDS011;44967;48.598;15.650;2023-07-09T09:10:17;3.55;;;3.25;;
59193;SDS011;44967;48.598;15.650;2023-07-09T09:15:38;4.82;;;2.97;;
59193;SDS011;44967;48.598;15.650;2023-07-09T09:18:22;4.20;;;2.97;;
59193;SDS011;44967;48.598;15.650;2023-07-09T09:20:51;3.13;;;2.83;;
59193;SDS011;44967;48.598;15.650;2023-07-09T09:23:21;3.10;;;2.80;;
59193;SDS011;44967;48.598;15.650;2023-07-09T09:25:52;3.80;;;3.00;;
59193;SDS011;44967;48.598;15.650;2023-07-09T09:28:21;3.10;;;2.72;;
59193;SDS011;44967;48.598;15.650;2023-07-09T09:30:50;3.40;;;2.72;;
59193;SDS011;44967;48.598;15.650;2023-07-09T09:33:16;2.88;;;2.67;;
59193;SDS011;44967;48.598;15.650;2023-07-09T09:35:43;2.85;;;2.65;;
59193;SDS011;44967;48.598;15.650;2023-07-09T09:38:11;4.43;;;2.80;;
59193;SDS011;44967;48.598;15.650;2023-07-09T09:40:39;3.25;;;2.88;;
59193;SDS011;44967;48.598;15.650;2023-07-09T09:43:12;3.22;;;2.90;;
59193;SDS011;44967;48.598;15.650;2023-07-09T09:45:50;5.38;;;3.00;;
59193;SDS011;44967;48.598;15.650;2023-07-09T09:50:51;3.17;;;2.60;;
59193;SDS011;44967;48.598;15.650;2023-07-09T09:53:18;3.45;;;2.35;;
59193;SDS011;44967;48.598;15.650;2023-07-09T09:55:47;3.47;;;2.80;;
59193;SDS011;44967;48.598;15.650;2023-07-09T09:58:15;2.70;;;2.45;;
59193;SDS011;44967;48.598;15.650;2023-07-09T10:00:52;3.15;;;2.85;;
59193;SDS011;44967;48.598;15.650;2023-07-09T10:03:20;4.45;;;2.90;;
59193;SDS011;44967;48.598;15.650;2023-07-09T10:05:53;4.00;;;3.00;;
59193;SDS011;44967;48.598;15.650;2023-07-09T10:13:43;3.40;;;2.70;;
59193;SDS011;44967;48.598;15.650;2023-07-09T10:24:51;8.07;;;2.83;;
59193;SDS011;44967;48.598;15.650;2023-07-09T10:27:28;3.67;;;3.28;;
59193;SDS011;44967;48.598;15.650;2023-07-09T10:35:36;2.95;;;2.65;;
59193;SDS011;44967;48.598;15.650;2023-07-09T10:38:38;3.17;;;2.88;;
59193;SDS011;44967;48.598;15.650;2023-07-09T10:41:13;2.92;;;2.58;;
59193;SDS011;44967;48.598;15.650;2023-07-09T10:43:45;3.28;;;2.50;;
59193;SDS011;44967;48.598;15.650;2023-07-09T10:46:19;3.85;;;3.00;;
59193;SDS011;44967;48.598;15.650;2023-07-09T10:48:50;4.72;;;2.90;;
59193;SDS011;44967;48.598;15.650;2023-07-09T10:56:41;4.10;;;2.83;;
59193;SDS011;44967;48.598;15.650;2023-07-09T11:01:56;2.72;;;2.50;;
59193;SDS011;44967;48.598;15.650;2023-07-09T11:04:46;3.38;;;2.47;;
59193;SDS011;44967;48.598;15.650;2023-07-09T11:07:17;4.00;;;2.73;;
59193;SDS011;44967;48.598;15.650;2023-07-09T11:09:47;3.55;;;2.60;;
59193;SDS011;44967;48.598;15.650;2023-07-09T11:12:16;3.00;;;2.70;;
59193;SDS011;44967;48.598;15.650;2023-07-09T11:15:02;3.08;;;2.63;;
59193;SDS011;44967;48.598;15.650;2023-07-09T11:17:33;4.15;;;2.80;;
59193;SDS011;44967;48.598;15.650;2023-07-09T11:20:07;4.00;;;2.80;;
59193;SDS011;44967;48.598;15.650;2023-07-09T11:22:50;3.83;;;3.08;;
59193;SDS011;44967;48.598;15.650;2023-07-09T11:25:27;3.13;;;2.80;;
59193;SDS011;44967;48.598;15.650;2023-07-09T11:28:04;3.20;;;2.60;;
59193;SDS011;44967;48.598;15.650;2023-07-09T11:30:31;3.05;;;2.60;;
59193;SDS011;44967;48.598;15.650;2023-07-09T11:33:02;5.47;;;3.00;;
59193;SDS011;44967;48.598;15.650;2023-07-09T11:35:43;5.57;;;3.42;;
59193;SDS011;44967;48.598;15.650;2023-07-09T11:38:17;4.95;;;3.10;;
59193;SDS011;44967;48.598;15.650;2023-07-09T11:40:46;3.25;;;2.95;;
59193;SDS011;44967;48.598;15.650;2023-07-09T11:43:34;3.13;;;2.83;;
59193;SDS011;44967;48.598;15.650;2023-07-09T11:46:22;3.38;;;2.92;;
59193;SDS011;44967;48.598;15.650;2023-07-09T11:48:52;5.35;;;3.25;;
59193;SDS011;44967;48.598;15.650;2023-07-09T11:51:44;3.22;;;2.90;;
59193;SDS011;44967;48.598;15.650;2023-07-09T11:54:14;3.45;;;2.80;;
59193;SDS011;44967;48.598;15.650;2023-07-09T11:56:40;3.72;;;2.60;;
59193;SDS011;44967;48.598;15.650;2023-07-09T11:59:15;5.22;;;2.72;;
59193;SDS011;44967;48.598;15.650;2023-07-09T12:01:45;3.20;;;2.90;;
59193;SDS011;44967;48.598;15.650;2023-07-09T12:04:17;3.53;;;2.92;;
59193;SDS011;44967;48.598;15.650;2023-07-09T12:06:45;5.32;;;3.63;;
59193;SDS011;44967;48.598;15.650;2023-07-09T12:09:13;2.95;;;2.58;;
59193;SDS011;44967;48.598;15.650;2023-07-09T12:11:45;5.22;;;2.65;;
59193;SDS011;44967;48.598;15.650;2023-07-09T12:14:17;3.05;;;2.75;;
59193;SDS011;44967;48.598;15.650;2023-07-09T12:16:47;5.53;;;3.10;;
59193;SDS011;44967;48.598;15.650;2023-07-09T12:19:18;4.13;;;2.80;;
59193;SDS011;44967;48.598;15.650;2023-07-09T12:21:48;3.65;;;2.92;;
59193;SDS011;44967;48.598;15.650;2023-07-09T12:24:19;4.10;;;3.42;;
59193;SDS011;44967;48.598;15.650;2023-07-09T12:26:47;3.85;;;2.97;;
59193;SDS011;44967;48.598;15.650;2023-07-09T12:29:14;3.45;;;2.80;;
59193;SDS011;44967;48.598;15.650;2023-07-09T12:31:40;4.07;;;3.08;;
59193;SDS011;44967;48.598;15.650;2023-07-09T12:34:10;5.07;;;3.50;;
59193;SDS011;44967;48.598;15.650;2023-07-09T12:36:40;3.30;;;3.00;;
59193;SDS011;44967;48.598;15.650;2023-07-09T12:39:09;4.45;;;3.20;;
59193;SDS011;44967;48.598;15.650;2023-07-09T12:41:39;2.95;;;2.63;;
59193;SDS011;44967;48.598;15.650;2023-07-09T12:44:11;3.60;;;3.20;;
59193;SDS011;44967;48.598;15.650;2023-07-09T12:46:42;8.23;;;2.97;;
59193;SDS011;44967;48.598;15.650;2023-07-09T12:49:12;3.20;;;2.90;;
59193;SDS011;44967;48.598;15.650;2023-07-09T12:51:48;3.42;;;3.13;;
59193;SDS011;44967;48.598;15.650;2023-07-09T12:54:18;3.35;;;3.05;;
59193;SDS011;44967;48.598;15.650;2023-07-09T12:56:46;3.75;;;3.10;;
59193;SDS011;44967;48.598;15.650;2023-07-09T12:59:16;4.05;;;3.58;;
59193;SDS011;44967;48.598;15.650;2023-07-09T13:01:54;3.85;;;3.40;;
59193;SDS011;44967;48.598;15.650;2023-07-09T13:04:35;3.13;;;2.83;;
59193;SDS011;44967;48.598;15.650;2023-07-09T13:07:03;3.30;;;2.97;;
59193;SDS011;44967;48.598;15.650;2023-07-09T13:09:29;3.67;;;2.95;;
59193;SDS011;44967;48.598;15.650;2023-07-09T13:11:55;4.88;;;3.30;;
59193;SDS011;44967;48.598;15.650;2023-07-09T13:14:23;3.20;;;2.90;;
59193;SDS011;44967;48.598;15.650;2023-07-09T13:16:52;5.97;;;3.28;;
59193;SDS011;44967;48.598;15.650;2023-07-09T13:19:26;3.35;;;2.60;;
59193;SDS011;44967;48.598;15.650;2023-07-09T13:21:52;3.25;;;2.95;;
59193;SDS011;44967;48.598;15.650;2023-07-09T13:24:24;4.53;;;2.85;;
59193;SDS011;44967;48.598;15.650;2023-07-09T13:26:54;3.80;;;3.17;;
59193;SDS011;44967;48.598;15.650;2023-07-09T13:29:23;3.63;;;3.10;;
59193;SDS011;44967;48.598;15.650;2023-07-09T13:31:49;4.88;;;3.10;;
59193;SDS011;44967;48.598;15.650;2023-07-09T13:34:19;3.55;;;3.20;;
59193;SDS011;44967;48.598;15.650;2023-07-09T13:36:46;5.57;;;3.40;;
59193;SDS011;44967;48.598;15.650;2023-07-09T13:39:12;4.97;;;3.15;;
59193;SDS011;44967;48.598;15.650;2023-07-09T13:41:40;3.45;;;3.15;;
59193;SDS011;44967;48.598;15.650;2023-07-09T13:44:16;3.78;;;2.90;;
59193;SDS011;44967;48.598;15.650;2023-07-09T13:46:47;3.28;;;2.97;;
59193;SDS011;44967;48.598;15.650;2023-07-09T13:49:14;3.80;;;3.33;;
59193;SDS011;44967;48.598;15.650;2023-07-09T13:51:43;4.78;;;2.88;;
59193;SDS011;44967;48.598;15.650;2023-07-09T13:54:13;3.08;;;2.88;;
59193;SDS011;44967;48.598;15.650;2023-07-09T13:57:00;3.53;;;3.08;;
59193;SDS011;44967;48.598;15.650;2023-07-09T13:59:27;4.20;;;3.55;;
59193;SDS011;44967;48.598;15.650;2023-07-09T14:01:54;5.82;;;3.40;;
59193;SDS011;44967;48.598;15.650;2023-07-09T14:04:23;2.88;;;2.67;;
59193;SDS011;44967;48.598;15.650;2023-07-09T14:06:50;3.40;;;3.10;;
59193;SDS011;44967;48.598;15.650;2023-07-09T14:09:15;3.90;;;2.95;;
59193;SDS011;44967;48.598;15.650;2023-07-09T14:11:43;3.90;;;3.47;;
59193;SDS011;44967;48.598;15.650;2023-07-09T14:14:30;3.47;;;3.17;;
59193;SDS011;44967;48.598;15.650;2023-07-09T14:16:58;4.15;;;3.30;;
59193;SDS011;44967;48.598;15.650;2023-07-09T14:19:24;3.90;;;2.90;;
59193;SDS011;44967;48.598;15.650;2023-07-09T14:21:51;4.57;;;3.42;;
59193;SDS011;44967;48.598;15.650;2023-07-09T14:24:20;4.07;;;3.33;;
59193;SDS011;44967;48.598;15.650;2023-07-09T14:26:51;3.38;;;2.92;;
59193;SDS011;44967;48.598;15.650;2023-07-09T14:29:18;3.58;;;2.88;;
59193;SDS011;44967;48.598;15.650;2023-07-09T14:31:44;3.10;;;2.90;;
59193;SDS011;44967;48.598;15.650;2023-07-09T14:36:58;4.45;;;3.33;;
59193;SDS011;44967;48.598;15.650;2023-07-09T14:39:25;3.38;;;3.08;;
59193;SDS011;44967;48.598;15.650;2023-07-09T14:41:52;3.00;;;2.80;;
59193;SDS011;44967;48.598;15.650;2023-07-09T14:46:50;3.25;;;2.90;;
59193;SDS011;44967;48.598;15.650;2023-07-09T14:49:17;4.97;;;3.00;;
59193;SDS011;44967;48.598;15.650;2023-07-09T14:51:43;3.40;;;3.10;;
59193;SDS011;44967;48.598;15.650;2023-07-09T14:54:13;3.83;;;3.10;;
59193;SDS011;44967;48.598;15.650;2023-07-09T14:56:54;4.88;;;2.83;;
59193;SDS011;44967;48.598;15.650;2023-07-09T14:59:23;4.72;;;3.15;;
59193;SDS011;44967;48.598;15.650;2023-07-09T15:01:49;4.30;;;3.30;;
59193;SDS011;44967;48.598;15.650;2023-07-09T15:06:48;3.92;;;3.35;;
59193;SDS011;44967;48.598;15.650;2023-07-09T15:09:15;4.28;;;3.10;;
59193;SDS011;44967;48.598;15.650;2023-07-09T15:11:42;3.85;;;3.13;;
59193;SDS011;44967;48.598;15.650;2023-07-09T15:14:11;3.47;;;3.17;;
59193;SDS011;44967;48.598;15.650;2023-07-09T15:16:37;5.82;;;3.63;;
59193;SDS011;44967;48.598;15.650;2023-07-09T15:19:12;4.70;;;3.03;;
59193;SDS011;44967;48.598;15.650;2023-07-09T15:21:42;3.67;;;3.08;;
59193;SDS011;44967;48.598;15.650;2023-07-09T15:24:17;3.28;;;2.95;;
59193;SDS011;44967;48.598;15.650;2023-07-09T15:26:45;4.85;;;3.08;;
59193;SDS011;44967;48.598;15.650;2023-07-09T15:29:13;3.20;;;2.85;;
59193;SDS011;44967;48.598;15.650;2023-07-09T15:31:40;3.75;;;2.88;;
59193;SDS011;44967;48.598;15.650;2023-07-09T15:34:06;3.42;;;3.08;;
59193;SDS011;44967;48.598;15.650;2023-07-09T15:36:32;5.35;;;3.17;;